createdAt,value
2018-02-23T00:00:01.160Z,102464.23
2018-02-23T00:02:30.309Z,102461.71
2018-02-23T00:04:58.665Z,102456.82
2018-02-23T00:07:26.972Z,102454.41
2018-02-23T00:09:55.324Z,102456.06
2018-02-23T00:12:23.638Z,102458.11
2018-02-23T00:14:51.932Z,102453.59
2018-02-23T00:17:20.836Z,102453.02
2018-02-23T00:19:49.961Z,102448.38
2018-02-23T00:22:18.274Z,102450.08
2018-02-23T00:24:46.636Z,102452.28
2018-02-23T00:27:14.962Z,102454.52
2018-02-23T00:29:43.281Z,102447.23
2018-02-23T00:32:11.615Z,102447.03
2018-02-23T00:34:39.941Z,102452.16
2018-02-23T00:37:08.272Z,102456.47
2018-02-23T00:39:36.963Z,102455.99
2018-02-23T00:42:06.031Z,102456.29
2018-02-23T00:44:34.367Z,102449.91
2018-02-23T00:47:02.755Z,102453.48
2018-02-23T00:49:31.049Z,102454.25
2018-02-23T00:51:59.353Z,102450.86
2018-02-23T00:54:27.717Z,102457.45
2018-02-23T00:56:56.815Z,102455.52
2018-02-23T00:59:25.158Z,102456.09
2018-02-23T01:01:53.823Z,102462.73
2018-02-23T01:04:22.938Z,102453.31
2018-02-23T01:06:51.261Z,102459.55
2018-02-23T01:09:19.592Z,102458.01
2018-02-23T01:11:47.912Z,102466.27
2018-02-23T01:14:16.226Z,102464.66
2018-02-23T01:16:45.329Z,102463.20
2018-02-23T01:19:14.388Z,102461.70
2018-02-23T01:21:42.699Z,102456.63
2018-02-23T01:24:12.101Z,102458.57
2018-02-23T01:26:41.189Z,102454.45
2018-02-23T01:29:09.523Z,102458.38
2018-02-23T01:31:37.861Z,102458.89
2018-02-23T01:34:06.947Z,102461.61
2018-02-23T01:36:35.273Z,102455.80
2018-02-23T01:39:03.613Z,102455.43
2018-02-23T01:41:31.950Z,102450.51
2018-02-23T01:44:00.272Z,102458.13
2018-02-23T01:46:29.585Z,102446.73
2018-02-23T01:48:57.916Z,102444.08
2018-02-23T01:51:26.223Z,102443.02
2018-02-23T01:53:54.586Z,102443.86
2018-02-23T01:56:22.926Z,102450.48
2018-02-23T01:58:51.228Z,102445.40
2018-02-23T02:01:19.599Z,102443.53
2018-02-23T02:03:47.921Z,102439.78
2018-02-23T02:06:17.016Z,102433.39
2018-02-23T02:08:46.255Z,102441.33
2018-02-23T02:11:14.592Z,102436.45
2018-02-23T02:13:43.665Z,102438.91
2018-02-23T02:16:12.028Z,102437.34
2018-02-23T02:18:40.320Z,102444.02
2018-02-23T02:21:08.644Z,102447.79
2018-02-23T02:23:36.977Z,102442.39
2018-02-23T02:26:05.340Z,102444.69
2018-02-23T02:28:33.689Z,102445.72
2018-02-23T02:31:02.513Z,102443.94
2018-02-23T02:33:30.861Z,102431.41
2018-02-23T02:35:59.177Z,102437.83
2018-02-23T02:38:27.529Z,102433.66
2018-02-23T02:40:55.859Z,102430.03
2018-02-23T02:43:24.976Z,102424.87
2018-02-23T02:45:53.297Z,102425.41
2018-02-23T02:48:21.641Z,102427.57
2018-02-23T02:50:49.969Z,102423.77
2018-02-23T02:53:18.805Z,102427.39
2018-02-23T02:55:47.133Z,102429.35
2018-02-23T02:58:15.479Z,102424.80
2018-02-23T03:00:43.856Z,102425.78
2018-02-23T03:03:12.166Z,102433.84
2018-02-23T03:05:40.510Z,102433.73
2018-02-23T03:08:08.834Z,102431.67
2018-02-23T03:10:37.147Z,102437.88
2018-02-23T03:13:05.480Z,102440.94
2018-02-23T03:15:34.044Z,102435.41
2018-02-23T03:18:02.369Z,102441.22
2018-02-23T03:20:31.443Z,102446.82
2018-02-23T03:22:59.810Z,102449.36
2018-02-23T03:25:28.163Z,102449.92
2018-02-23T03:27:56.487Z,102450.87
2018-02-23T03:30:24.841Z,102450.94
2018-02-23T03:32:53.178Z,102452.86
2018-02-23T03:35:21.512Z,102450.05
2018-02-23T03:37:50.101Z,102456.31
2018-02-23T03:40:18.420Z,102459.02
2018-02-23T03:42:46.792Z,102465.69
2018-02-23T03:45:15.889Z,102455.80
2018-02-23T03:47:44.970Z,102464.18
2018-02-23T03:50:14.051Z,102471.16
2018-02-23T03:52:42.395Z,102460.23
2018-02-23T03:55:10.728Z,102461.27
2018-02-23T03:57:39.045Z,102469.91
2018-02-23T04:00:07.904Z,102470.55
2018-02-23T04:02:37.064Z,102469.72
2018-02-23T04:05:05.381Z,102468.00
2018-02-23T04:07:33.760Z,102467.50
2018-02-23T04:10:02.827Z,102463.06
2018-02-23T04:12:31.131Z,102464.30
2018-02-23T04:14:59.464Z,102460.02
2018-02-23T04:17:28.571Z,102458.67
2018-02-23T04:19:56.923Z,102469.33
2018-02-23T04:22:25.435Z,102470.94
2018-02-23T04:24:53.756Z,102468.53
2018-02-23T04:27:22.070Z,102468.94
2018-02-23T04:29:50.413Z,102462.97
2018-02-23T04:32:18.769Z,102471.59
2018-02-23T04:34:47.086Z,102475.48
2018-02-23T04:37:15.453Z,102472.89
2018-02-23T04:39:43.744Z,102482.82
2018-02-23T04:42:12.067Z,102479.39
2018-02-23T04:44:40.929Z,102495.09
2018-02-23T04:47:09.241Z,102494.77
2018-02-23T04:49:37.549Z,102505.89
2018-02-23T04:52:05.907Z,102498.55
2018-02-23T04:54:35.003Z,102497.88
2018-02-23T04:57:04.095Z,102508.97
2018-02-23T04:59:33.200Z,102508.66
2018-02-23T05:02:02.304Z,102512.84
2018-02-23T05:04:31.387Z,102519.48
2018-02-23T05:07:00.885Z,102518.55
2018-02-23T05:09:29.960Z,102508.06
2018-02-23T05:11:58.304Z,102512.42
2018-02-23T05:14:26.663Z,102514.70
2018-02-23T05:16:55.064Z,102510.03
2018-02-23T05:19:23.379Z,102517.40
2018-02-23T05:21:51.730Z,102518.13
2018-02-23T05:24:20.054Z,102510.80
2018-02-23T05:26:49.133Z,102517.58
2018-02-23T05:29:18.001Z,102512.42
2018-02-23T05:31:46.309Z,102524.31
2018-02-23T05:34:14.780Z,102520.18
2018-02-23T05:36:43.118Z,102527.78
2018-02-23T05:39:11.531Z,102520.19
2018-02-23T05:41:39.849Z,102526.41
2018-02-23T05:44:09.273Z,102522.34
2018-02-23T05:46:37.612Z,102527.00
2018-02-23T05:49:05.965Z,102524.29
2018-02-23T05:51:34.646Z,102530.39
2018-02-23T05:54:02.999Z,102529.30
2018-02-23T05:56:31.368Z,102535.60
2018-02-23T05:59:00.512Z,102537.48
2018-02-23T06:01:28.879Z,102531.28
2018-02-23T06:03:57.215Z,102541.89
2018-02-23T06:06:26.445Z,102545.98
2018-02-23T06:08:54.753Z,102548.94
2018-02-23T06:11:23.098Z,102551.49
2018-02-23T06:13:51.584Z,102546.04
2018-02-23T06:16:25.387Z,102548.94
2018-02-23T06:18:58.135Z,102552.36
2018-02-23T06:21:27.268Z,102562.77
2018-02-23T06:23:55.629Z,102563.97
2018-02-23T06:26:24.077Z,102562.64
2018-02-23T06:28:53.168Z,102565.51
2018-02-23T06:31:21.502Z,102562.99
2018-02-23T06:33:50.093Z,102567.03
2018-02-23T06:36:18.449Z,102569.35
2018-02-23T06:38:46.742Z,102566.64
2018-02-23T06:41:15.100Z,102569.53
2018-02-23T06:43:44.173Z,102565.91
2018-02-23T06:46:12.784Z,102556.94
2018-02-23T06:48:41.093Z,102565.02
2018-02-23T06:51:09.528Z,102560.67
2018-02-23T06:53:37.850Z,102567.48
2018-02-23T06:56:06.699Z,102564.07
2018-02-23T06:58:35.016Z,102560.53
2018-02-23T07:01:03.368Z,102565.25
2018-02-23T07:03:31.716Z,102554.81
2018-02-23T07:06:00.040Z,102563.98
2018-02-23T07:08:28.339Z,102561.75
2018-02-23T07:10:57.738Z,102556.89
2018-02-23T07:13:26.070Z,102556.01
2018-02-23T07:15:54.385Z,102555.89
2018-02-23T07:18:22.959Z,102559.88
2018-02-23T07:20:51.294Z,102558.83
2018-02-23T07:23:20.424Z,102560.52
2018-02-23T07:25:48.772Z,102558.42
2018-02-23T07:28:17.889Z,102550.94
2018-02-23T07:30:46.231Z,102547.14
2018-02-23T07:33:14.589Z,102554.50
2018-02-23T07:35:42.916Z,102557.05
2018-02-23T07:38:12.016Z,102552.47
2018-02-23T07:40:40.538Z,102550.73
2018-02-23T07:43:08.857Z,102540.89
2018-02-23T07:45:37.202Z,102546.02
2018-02-23T07:48:05.593Z,102551.34
2018-02-23T07:50:33.928Z,102554.58
2018-02-23T07:53:02.277Z,102550.19
2018-02-23T07:55:31.418Z,102554.56
2018-02-23T07:57:59.741Z,102555.55
2018-02-23T08:00:28.058Z,102560.93
2018-02-23T08:02:56.494Z,102564.49
2018-02-23T08:05:24.840Z,102557.33
2018-02-23T08:07:53.141Z,102555.75
2018-02-23T08:10:22.247Z,102563.09
2018-02-23T08:12:50.601Z,102565.03
2018-02-23T08:15:18.925Z,102558.21
2018-02-23T08:17:48.023Z,102568.14
2018-02-23T08:20:16.367Z,102567.43
2018-02-23T08:22:44.715Z,102566.41
2018-02-23T08:25:13.126Z,102566.55
2018-02-23T08:27:41.435Z,102563.91
2018-02-23T08:30:10.545Z,102573.67
2018-02-23T08:32:38.979Z,102572.20
2018-02-23T08:35:07.319Z,102569.13
2018-02-23T08:37:35.649Z,102568.39
2018-02-23T08:40:04.734Z,102572.56
2018-02-23T08:42:33.056Z,102574.58
2018-02-23T08:45:02.167Z,102572.87
2018-02-23T08:47:30.591Z,102573.18
2018-02-23T08:49:58.936Z,102576.08
2018-02-23T08:52:27.270Z,102584.84
2018-02-23T08:54:55.659Z,102585.70
2018-02-23T08:57:24.754Z,102588.47
2018-02-23T08:59:53.879Z,102582.02
2018-02-23T09:02:22.243Z,102589.23
2018-02-23T09:04:51.341Z,102599.37
2018-02-23T09:07:20.440Z,102598.09
2018-02-23T09:09:49.223Z,102599.34
2018-02-23T09:12:18.298Z,102588.88
2018-02-23T09:14:47.403Z,102582.30
2018-02-23T09:17:15.747Z,102583.05
2018-02-23T09:19:44.113Z,102586.90
2018-02-23T09:22:12.456Z,102590.75
2018-02-23T09:24:40.862Z,102595.03
2018-02-23T09:27:09.157Z,102603.48
2018-02-23T09:29:37.485Z,102598.10
2018-02-23T09:35:12.557Z,102598.48
2018-02-23T09:37:40.917Z,102603.79
2018-02-23T09:40:10.006Z,102603.06
2018-02-23T09:42:39.122Z,102602.36
2018-02-23T09:45:07.474Z,102612.95
2018-02-23T09:47:35.825Z,102617.07
2018-02-23T09:50:04.200Z,102628.45
2018-02-23T09:52:33.141Z,102631.33
2018-02-23T09:55:02.223Z,102617.00
2018-02-23T09:57:30.547Z,102612.02
2018-02-23T09:59:58.913Z,102614.09
2018-02-23T10:02:27.262Z,102624.36
2018-02-23T10:04:55.645Z,102630.31
2018-02-23T10:07:23.964Z,102636.78
2018-02-23T10:09:52.289Z,102634.28
2018-02-23T10:12:20.637Z,102630.25
2018-02-23T10:14:49.476Z,102639.92
2018-02-23T10:17:18.551Z,102631.20
2018-02-23T10:19:46.910Z,102625.70
2018-02-23T10:22:15.296Z,102619.50
2018-02-23T10:24:43.632Z,102604.06
2018-02-23T10:27:11.959Z,102607.84
2018-02-23T10:29:40.635Z,102615.11
2018-02-23T10:32:09.023Z,102606.26
2018-02-23T10:34:37.425Z,102605.11
2018-02-23T10:37:06.646Z,102597.19
2018-02-23T10:39:34.996Z,102597.46
2018-02-23T10:42:03.315Z,102599.34
2018-02-23T10:44:31.714Z,102594.74
2018-02-23T10:47:00.056Z,102598.72
2018-02-23T10:49:29.141Z,102589.53
2018-02-23T10:51:58.267Z,102589.28
2018-02-23T10:54:26.618Z,102584.12
2018-02-23T10:56:54.941Z,102585.76
2018-02-23T10:59:23.563Z,102587.95
2018-02-23T11:01:51.955Z,102583.04
2018-02-23T11:04:21.072Z,102577.91
2018-02-23T11:06:49.445Z,102578.55
2018-02-23T11:09:17.785Z,102576.98
2018-02-23T11:11:46.131Z,102577.72
2018-02-23T11:14:14.469Z,102582.66
2018-02-23T11:16:42.809Z,102575.98
2018-02-23T11:19:11.136Z,102578.73
2018-02-23T11:21:39.929Z,102586.39
2018-02-23T11:24:08.252Z,102581.60
2018-02-23T11:26:36.572Z,102575.08
2018-02-23T11:29:05.688Z,102570.66
2018-02-23T11:31:34.018Z,102569.42
2018-02-23T11:34:02.326Z,102566.20
2018-02-23T11:36:31.429Z,102575.78
2018-02-23T11:38:59.838Z,102570.98
2018-02-23T11:41:28.192Z,102569.77
2018-02-23T11:43:56.730Z,102571.20
2018-02-23T11:46:25.036Z,102564.11
2018-02-23T11:48:54.109Z,102567.30
2018-02-23T11:51:22.438Z,102569.31
2018-02-23T11:53:50.752Z,102568.61
2018-02-23T11:56:19.068Z,102573.41
2018-02-23T11:58:48.181Z,102555.45
2018-02-23T12:01:16.516Z,102565.86
2018-02-23T12:03:44.829Z,102562.28
2018-02-23T12:06:14.217Z,102552.42
2018-02-23T12:08:42.593Z,102557.00
2018-02-23T12:11:11.866Z,102555.80
2018-02-23T12:13:40.259Z,102558.03
2018-02-23T12:16:08.570Z,102563.95
2018-02-23T12:18:37.664Z,102563.01
2018-02-23T12:21:06.029Z,102557.67
2018-02-23T12:23:35.184Z,102556.11
2018-02-23T12:26:03.487Z,102558.70
2018-02-23T12:28:32.209Z,102563.54
2018-02-23T12:31:00.531Z,102564.48
2018-02-23T12:33:28.882Z,102555.59
2018-02-23T12:35:57.240Z,102563.90
2018-02-23T12:38:25.605Z,102567.11
2018-02-23T12:40:53.953Z,102565.27
2018-02-23T12:43:22.312Z,102555.63
2018-02-23T12:45:50.653Z,102557.20
2018-02-23T12:48:19.744Z,102554.63
2018-02-23T12:50:48.992Z,102554.23
2018-02-23T12:53:17.314Z,102555.75
2018-02-23T12:55:46.433Z,102545.42
2018-02-23T12:58:15.529Z,102538.01
2018-02-23T13:00:44.635Z,102541.45
2018-02-23T13:03:12.985Z,102538.59
2018-02-23T13:05:42.136Z,102541.30
2018-02-23T13:08:10.500Z,102536.41
2018-02-23T13:10:38.853Z,102537.98
2018-02-23T13:13:08.188Z,102540.36
2018-02-23T13:15:36.522Z,102541.55
2018-02-23T13:18:05.638Z,102555.27
2018-02-23T13:20:34.004Z,102541.14
2018-02-23T13:23:03.083Z,102544.56
2018-02-23T13:25:31.403Z,102543.41
2018-02-23T13:28:05.076Z,102541.52
2018-02-23T13:30:34.157Z,102538.88
2018-02-23T13:33:02.509Z,102539.09
2018-02-23T13:35:31.233Z,102539.58
2018-02-23T13:37:59.570Z,102526.08
2018-02-23T13:40:30.713Z,102531.21
2018-02-23T13:42:59.074Z,102523.86
2018-02-23T13:45:27.385Z,102518.77
2018-02-23T13:47:55.715Z,102517.87
2018-02-23T13:50:24.065Z,102519.95
2018-02-23T13:52:52.475Z,102533.62
2018-02-23T13:55:20.819Z,102525.53
2018-02-23T13:57:49.620Z,102535.30
2018-02-23T14:00:17.943Z,102529.31
2018-02-23T14:02:46.276Z,102533.27
2018-02-23T14:05:15.428Z,102528.09
2018-02-23T14:07:43.738Z,102526.48
2018-02-23T14:10:12.073Z,102522.84
2018-02-23T14:12:40.451Z,102514.42
2018-02-23T14:15:08.783Z,102515.97
2018-02-23T14:17:37.986Z,102512.41
2018-02-23T14:20:06.691Z,102513.97
2018-02-23T14:22:35.005Z,102514.91
2018-02-23T14:25:03.352Z,102507.30
2018-02-23T14:27:31.679Z,102512.72
2018-02-23T14:30:00.005Z,102515.51
2018-02-23T14:32:29.138Z,102512.17
2018-02-23T14:34:57.687Z,102516.23
2018-02-23T14:37:26.091Z,102507.52
2018-02-23T14:39:54.432Z,102512.89
2018-02-23T14:42:23.847Z,102516.12
2018-02-23T14:44:52.301Z,102507.45
2018-02-23T14:47:20.604Z,102512.33
2018-02-23T14:50:07.335Z,102512.88
2018-02-23T14:52:35.667Z,102520.80
2018-02-23T14:55:03.982Z,102513.89
2018-02-23T14:57:32.547Z,102514.53
2018-02-23T15:00:01.665Z,102519.45
2018-02-23T15:02:30.004Z,102518.18
2018-02-23T15:04:58.382Z,102517.70
2018-02-23T15:07:26.754Z,102522.74
2018-02-23T15:09:55.108Z,102519.86
2018-02-23T15:12:23.478Z,102529.13
2018-02-23T15:14:51.841Z,102522.86
2018-02-23T15:17:20.188Z,102517.35
2018-02-23T15:19:49.806Z,102507.31
2018-02-23T15:22:18.130Z,102505.80
2018-02-23T15:24:46.440Z,102507.76
2018-02-23T15:27:14.799Z,102503.31
2018-02-23T15:29:43.140Z,102514.44
2018-02-23T15:32:41.103Z,102503.25
2018-02-23T15:35:10.523Z,102502.91
2018-02-23T15:37:38.853Z,102506.44
2018-02-23T15:40:07.379Z,102502.07
2018-02-23T15:42:35.701Z,102502.39
2018-02-23T15:45:04.034Z,102511.20
2018-02-23T15:47:37.217Z,102508.33
2018-02-23T15:53:15.138Z,102510.80
2018-02-23T15:55:44.254Z,102508.53
2018-02-23T16:01:12.212Z,102513.90
2018-02-23T16:03:41.321Z,102508.89
2018-02-23T16:06:09.638Z,102510.61
2018-02-23T16:08:37.975Z,102512.94
2018-02-23T16:11:07.109Z,102518.03
2018-02-23T16:13:35.426Z,102525.83
2018-02-23T16:16:03.761Z,102523.69
2018-02-23T16:18:32.581Z,102524.36
2018-02-23T16:21:00.915Z,102528.44
2018-02-23T16:23:29.239Z,102526.87
2018-02-23T16:25:57.605Z,102531.07
2018-02-23T16:28:25.937Z,102523.67
2018-02-23T16:30:54.267Z,102529.45
2018-02-23T16:33:22.597Z,102522.54
2018-02-23T16:35:51.236Z,102517.22
2018-02-23T16:38:19.565Z,102526.50
2018-02-23T16:40:48.118Z,102527.87
2018-02-23T16:43:16.445Z,102525.11
2018-02-23T16:45:44.776Z,102530.22
2018-02-23T16:48:13.128Z,102536.34
2018-02-23T16:50:41.462Z,102531.81
2018-02-23T16:53:09.769Z,102532.74
2018-02-23T16:55:38.148Z,102531.47
2018-02-23T16:58:06.487Z,102537.16
2018-02-23T17:00:34.830Z,102538.70
2018-02-23T17:03:03.683Z,102533.56
2018-02-23T17:05:32.032Z,102530.35
2018-02-23T17:08:01.117Z,102543.19
2018-02-23T17:10:30.225Z,102545.25
2018-02-23T17:12:59.305Z,102541.84
2018-02-23T17:15:28.381Z,102546.90
2018-02-23T17:17:56.745Z,102551.38
2018-02-23T17:20:25.076Z,102547.39
2018-02-23T17:22:53.418Z,102543.27
2018-02-23T17:25:22.080Z,102540.84
2018-02-23T17:27:50.473Z,102540.11
2018-02-23T17:30:18.817Z,102548.37
2018-02-23T17:32:47.154Z,102549.67
2018-02-23T17:35:15.450Z,102548.64
2018-02-23T17:37:44.878Z,102552.86
2018-02-23T17:40:13.220Z,102553.34
2018-02-23T17:42:42.294Z,102550.98
2018-02-23T17:45:10.644Z,102547.95
2018-02-23T17:47:39.396Z,102555.72
2018-02-23T17:50:07.742Z,102559.23
2018-02-23T17:52:36.064Z,102559.08
2018-02-23T17:55:04.429Z,102555.58
2018-02-23T17:57:32.772Z,102563.50
2018-02-23T18:00:01.099Z,102561.84
2018-02-23T18:02:29.490Z,102565.47
2018-02-23T18:04:57.810Z,102571.14
2018-02-23T18:07:26.142Z,102574.98
2018-02-23T18:09:55.469Z,102579.36
2018-02-23T18:12:23.790Z,102581.78
2018-02-23T18:14:52.128Z,102580.66
2018-02-23T18:17:20.494Z,102580.48
2018-02-23T18:19:50.169Z,102583.92
2018-02-23T18:22:19.267Z,102582.78
2018-02-23T18:24:48.367Z,102588.70
2018-02-23T18:27:17.502Z,102579.81
2018-02-23T18:29:45.837Z,102584.34
2018-02-23T18:32:14.516Z,102593.52
2018-02-23T18:34:42.869Z,102587.53
2018-02-23T18:37:11.213Z,102593.12
2018-02-23T18:39:40.092Z,102592.22
2018-02-23T18:42:08.412Z,102594.85
2018-02-23T18:44:36.741Z,102596.39
2018-02-23T18:47:05.098Z,102611.10
2018-02-23T18:49:34.187Z,102603.81
2018-02-23T18:52:03.275Z,102604.71
2018-02-23T18:54:32.313Z,102606.64
2018-02-23T18:57:00.663Z,102607.48
2018-02-23T18:59:29.777Z,102611.33
2018-02-23T19:01:58.195Z,102615.02
2018-02-23T19:04:26.534Z,102613.44
2018-02-23T19:06:55.628Z,102618.56
2018-02-23T19:09:24.764Z,102614.59
2018-02-23T19:11:53.071Z,102623.19
2018-02-23T19:14:21.395Z,102632.63
2018-02-23T19:16:50.112Z,102627.59
2018-02-23T19:19:18.435Z,102625.27
2018-02-23T19:21:46.772Z,102636.95
2018-02-23T19:24:15.172Z,102636.73
2018-02-23T19:26:43.476Z,102643.80
2018-02-23T19:29:12.609Z,102641.80
2018-02-23T19:31:40.974Z,102637.97
2018-02-23T19:34:09.289Z,102637.50
2018-02-23T19:36:37.616Z,102643.45
2018-02-23T19:39:06.366Z,102645.23
2018-02-23T19:41:34.677Z,102641.47
2018-02-23T19:44:03.034Z,102646.49
2018-02-23T19:46:31.354Z,102642.98
2018-02-23T19:48:59.672Z,102640.95
2018-02-23T19:51:27.982Z,102645.02
2018-02-23T19:53:56.350Z,102643.06
2018-02-23T19:56:24.664Z,102644.88
2018-02-23T19:58:52.965Z,102651.66
2018-02-23T20:01:21.605Z,102657.14
2018-02-23T20:03:50.748Z,102650.93
2018-02-23T20:06:19.091Z,102654.76
2018-02-23T20:08:47.743Z,102658.99
2018-02-23T20:11:16.058Z,102658.23
2018-02-23T20:13:44.423Z,102662.36
2018-02-23T20:16:13.570Z,102663.44
2018-02-23T20:18:41.936Z,102665.66
2018-02-23T20:21:10.289Z,102670.94
2018-02-23T20:23:39.863Z,102670.37
2018-02-23T20:26:08.253Z,102668.16
2018-02-23T20:28:36.779Z,102669.00
2018-02-23T20:31:05.158Z,102678.14
2018-02-23T20:33:33.500Z,102681.24
2018-02-23T20:36:02.638Z,102682.98
2018-02-23T20:38:31.039Z,102689.20
2018-02-23T20:40:59.397Z,102690.84
2018-02-23T20:43:27.746Z,102685.56
2018-02-23T20:45:57.245Z,102698.98
2018-02-23T20:48:27.062Z,102695.53
2018-02-23T20:50:56.205Z,102696.38
2018-02-23T20:53:24.616Z,102697.59
2018-02-23T20:55:52.952Z,102695.17
2018-02-23T20:58:21.296Z,102698.14
2018-02-23T21:00:50.421Z,102700.41
2018-02-23T21:03:18.843Z,102704.02
2018-02-23T21:05:47.291Z,102697.22
2018-02-23T21:08:16.085Z,102689.76
2018-02-23T21:10:44.432Z,102690.38
2018-02-23T21:13:12.756Z,102695.80
2018-02-23T21:15:41.190Z,102702.80
2018-02-23T21:18:09.571Z,102706.56
2018-02-23T21:20:38.043Z,102701.44
2018-02-23T21:23:07.231Z,102694.77
2018-02-23T21:25:36.341Z,102695.00
2018-02-23T21:28:05.435Z,102693.22
2018-02-23T21:30:35.033Z,102696.48
2018-02-23T21:33:03.368Z,102697.64
2018-02-23T21:35:31.699Z,102702.36
2018-02-23T21:38:00.860Z,102700.73
2018-02-23T21:40:29.306Z,102714.89
2018-02-23T21:42:57.621Z,102716.30
2018-02-23T21:45:26.013Z,102708.34
2018-02-23T21:47:55.182Z,102715.25
2018-02-23T21:50:23.577Z,102713.50
2018-02-23T21:52:52.853Z,102714.07
2018-02-23T21:55:21.259Z,102718.92
2018-02-23T21:57:49.658Z,102712.97
2018-02-23T22:00:18.333Z,102717.02
2018-02-23T22:02:46.667Z,102724.71
2018-02-23T22:05:15.060Z,102728.66
2018-02-23T22:07:43.420Z,102723.56
2018-02-23T22:10:11.737Z,102731.27
2018-02-23T22:12:40.058Z,102734.78
2018-02-23T22:15:08.650Z,102738.58
2018-02-23T22:17:36.998Z,102729.91
2018-02-23T22:20:05.343Z,102737.25
2018-02-23T22:22:33.709Z,102727.58
2018-02-23T22:25:02.026Z,102733.81
2018-02-23T22:27:30.344Z,102741.77
2018-02-23T22:29:58.711Z,102744.75
2018-02-23T22:32:27.813Z,102741.31
2018-02-23T22:34:56.153Z,102746.81
2018-02-23T22:37:25.002Z,102741.34
2018-02-23T22:39:53.327Z,102745.80
2018-02-23T22:42:21.632Z,102749.88
2018-02-23T22:44:49.962Z,102749.29
2018-02-23T22:47:19.063Z,102746.40
2018-02-23T22:49:48.157Z,102751.34
2018-02-23T22:52:16.493Z,102760.69
2018-02-23T22:54:44.837Z,102750.49
2018-02-23T22:57:13.164Z,102752.63
2018-02-23T22:59:41.638Z,102749.84
2018-02-23T23:02:10.042Z,102746.38
2018-02-23T23:04:38.503Z,102748.63
2018-02-23T23:07:14.625Z,102750.32
2018-02-23T23:09:43.012Z,102742.89
2018-02-23T23:12:12.109Z,102747.68
2018-02-23T23:14:41.268Z,102750.37
2018-02-23T23:17:09.580Z,102753.13
2018-02-23T23:19:38.673Z,102755.19
2018-02-23T23:22:08.600Z,102757.71
2018-02-23T23:24:36.955Z,102759.19
2018-02-23T23:27:05.291Z,102762.09
2018-02-23T23:29:33.669Z,102762.75
2018-02-23T23:32:01.999Z,102773.65
2018-02-23T23:34:30.357Z,102772.95
2018-02-23T23:36:58.715Z,102771.23
2018-02-23T23:39:31.878Z,102770.50
2018-02-23T23:42:01.580Z,102770.67
2018-02-23T23:44:29.878Z,102770.84
2018-02-23T23:46:58.221Z,102774.52
2018-02-23T23:49:27.324Z,102777.88
2018-02-23T23:51:56.413Z,102780.77
2018-02-23T23:54:25.541Z,102775.19
2018-02-23T23:56:53.871Z,102781.09
2018-02-23T23:59:22.175Z,102776.87
